sensor_id;sensor_type;location;lat;lon;timestamp;temperature;humidity
16267;DHT22;8241;48.786;9.250;2022-10-22T00:00:22;14.70;99.90
16267;DHT22;8241;48.786;9.250;2022-10-22T00:02:49;14.70;99.90
16267;DHT22;8241;48.786;9.250;2022-10-22T00:05:15;14.70;99.90
16267;DHT22;8241;48.786;9.250;2022-10-22T00:07:42;14.60;99.90
16267;DHT22;8241;48.786;9.250;2022-10-22T00:10:09;14.50;99.90
16267;DHT22;8241;48.786;9.250;2022-10-22T00:12:37;14.50;99.90
16267;DHT22;8241;48.786;9.250;2022-10-22T00:15:05;14.50;99.90
16267;DHT22;8241;48.786;9.250;2022-10-22T00:17:38;14.50;99.90
16267;DHT22;8241;48.786;9.250;2022-10-22T00:20:05;14.50;99.90
16267;DHT22;8241;48.786;9.250;2022-10-22T00:22:32;14.40;99.90
16267;DHT22;8241;48.786;9.250;2022-10-22T00:24:59;14.30;99.90
16267;DHT22;8241;48.786;9.250;2022-10-22T00:27:26;14.30;99.90
16267;DHT22;8241;48.786;9.250;2022-10-22T00:29:54;14.30;99.90
16267;DHT22;8241;48.786;9.250;2022-10-22T00:32:20;14.20;99.90
16267;DHT22;8241;48.786;9.250;2022-10-22T00:34:47;14.20;99.90
16267;DHT22;8241;48.786;9.250;2022-10-22T00:40:05;14.20;99.90
16267;DHT22;8241;48.786;9.250;2022-10-22T00:42:32;14.20;99.90
16267;DHT22;8241;48.786;9.250;2022-10-22T00:45:13;14.20;99.90
16267;DHT22;8241;48.786;9.250;2022-10-22T00:47:41;14.20;99.90
16267;DHT22;8241;48.786;9.250;2022-10-22T00:50:10;14.10;99.90
16267;DHT22;8241;48.786;9.250;2022-10-22T00:52:38;14.10;99.90
16267;DHT22;8241;48.786;9.250;2022-10-22T00:55:05;14.10;99.90
16267;DHT22;8241;48.786;9.250;2022-10-22T00:57:32;14.10;99.90
16267;DHT22;8241;48.786;9.250;2022-10-22T00:59:59;14.10;99.90
16267;DHT22;8241;48.786;9.250;2022-10-22T01:02:28;14.10;99.90
16267;DHT22;8241;48.786;9.250;2022-10-22T01:07:54;14.10;99.90
16267;DHT22;8241;48.786;9.250;2022-10-22T01:10:25;14.00;99.90
16267;DHT22;8241;48.786;9.250;2022-10-22T01:12:54;14.00;99.90
16267;DHT22;8241;48.786;9.250;2022-10-22T01:15:23;14.10;99.90
16267;DHT22;8241;48.786;9.250;2022-10-22T01:17:56;14.20;99.90
16267;DHT22;8241;48.786;9.250;2022-10-22T01:20:32;14.20;99.90
16267;DHT22;8241;48.786;9.250;2022-10-22T01:23:18;14.10;99.90
16267;DHT22;8241;48.786;9.250;2022-10-22T01:25:50;14.20;99.90
16267;DHT22;8241;48.786;9.250;2022-10-22T01:28:21;14.10;99.90
16267;DHT22;8241;48.786;9.250;2022-10-22T01:30:52;14.00;99.90
16267;DHT22;8241;48.786;9.250;2022-10-22T01:33:20;14.10;99.90
16267;DHT22;8241;48.786;9.250;2022-10-22T01:35:48;14.00;99.90
16267;DHT22;8241;48.786;9.250;2022-10-22T01:38:22;14.00;99.90
16267;DHT22;8241;48.786;9.250;2022-10-22T01:40:50;14.00;99.90
16267;DHT22;8241;48.786;9.250;2022-10-22T01:43:17;14.00;99.90
16267;DHT22;8241;48.786;9.250;2022-10-22T01:45:45;14.00;99.90
16267;DHT22;8241;48.786;9.250;2022-10-22T01:48:18;14.00;99.90
16267;DHT22;8241;48.786;9.250;2022-10-22T01:54:19;14.00;99.90
16267;DHT22;8241;48.786;9.250;2022-10-22T01:56:53;14.00;99.90
16267;DHT22;8241;48.786;9.250;2022-10-22T01:59:24;13.90;99.90
16267;DHT22;8241;48.786;9.250;2022-10-22T02:01:55;13.90;99.90
16267;DHT22;8241;48.786;9.250;2022-10-22T02:04:27;14.00;99.90
16267;DHT22;8241;48.786;9.250;2022-10-22T02:06:56;14.00;99.90
16267;DHT22;8241;48.786;9.250;2022-10-22T02:09:24;13.90;99.90
16267;DHT22;8241;48.786;9.250;2022-10-22T02:11:52;13.90;99.90
16267;DHT22;8241;48.786;9.250;2022-10-22T02:14:20;13.90;99.90
16267;DHT22;8241;48.786;9.250;2022-10-22T02:16:47;13.90;99.90
16267;DHT22;8241;48.786;9.250;2022-10-22T02:19:16;14.00;99.90
16267;DHT22;8241;48.786;9.250;2022-10-22T02:21:46;13.90;99.90
16267;DHT22;8241;48.786;9.250;2022-10-22T02:26:45;14.00;99.90
16267;DHT22;8241;48.786;9.250;2022-10-22T02:29:18;14.10;99.90
16267;DHT22;8241;48.786;9.250;2022-10-22T02:31:45;14.10;99.90
16267;DHT22;8241;48.786;9.250;2022-10-22T02:34:15;14.20;99.90
16267;DHT22;8241;48.786;9.250;2022-10-22T02:36:46;14.10;99.90
16267;DHT22;8241;48.786;9.250;2022-10-22T02:39:13;14.20;99.90
16267;DHT22;8241;48.786;9.250;2022-10-22T02:41:41;14.20;99.90
16267;DHT22;8241;48.786;9.250;2022-10-22T02:44:08;14.10;99.90
16267;DHT22;8241;48.786;9.250;2022-10-22T02:46:45;14.10;99.90
16267;DHT22;8241;48.786;9.250;2022-10-22T02:49:11;14.10;99.90
16267;DHT22;8241;48.786;9.250;2022-10-22T02:51:38;14.10;99.90
16267;DHT22;8241;48.786;9.250;2022-10-22T02:54:06;14.10;99.90
16267;DHT22;8241;48.786;9.250;2022-10-22T02:56:42;14.10;99.90
16267;DHT22;8241;48.786;9.250;2022-10-22T02:59:09;14.10;99.90
16267;DHT22;8241;48.786;9.250;2022-10-22T03:01:36;14.00;99.90
16267;DHT22;8241;48.786;9.250;2022-10-22T03:04:03;14.00;99.90
16267;DHT22;8241;48.786;9.250;2022-10-22T03:09:20;14.10;99.90
16267;DHT22;8241;48.786;9.250;2022-10-22T03:11:47;14.10;99.90
16267;DHT22;8241;48.786;9.250;2022-10-22T03:14:14;14.20;99.90
16267;DHT22;8241;48.786;9.250;2022-10-22T03:16:41;14.10;99.90
16267;DHT22;8241;48.786;9.250;2022-10-22T03:19:07;14.20;99.90
16267;DHT22;8241;48.786;9.250;2022-10-22T03:21:36;14.20;99.90
16267;DHT22;8241;48.786;9.250;2022-10-22T03:24:04;14.20;99.90
16267;DHT22;8241;48.786;9.250;2022-10-22T03:26:37;14.10;99.90
16267;DHT22;8241;48.786;9.250;2022-10-22T03:29:05;14.10;99.90
16267;DHT22;8241;48.786;9.250;2022-10-22T03:31:33;14.10;99.90
16267;DHT22;8241;48.786;9.250;2022-10-22T03:34:00;14.10;99.90
16267;DHT22;8241;48.786;9.250;2022-10-22T03:36:32;14.10;99.90
16267;DHT22;8241;48.786;9.250;2022-10-22T03:39:03;14.10;99.90
16267;DHT22;8241;48.786;9.250;2022-10-22T03:44:18;14.20;99.90
16267;DHT22;8241;48.786;9.250;2022-10-22T03:47:03;14.20;99.90
16267;DHT22;8241;48.786;9.250;2022-10-22T03:52:27;14.20;99.90
16267;DHT22;8241;48.786;9.250;2022-10-22T03:57:44;14.20;99.90
16267;DHT22;8241;48.786;9.250;2022-10-22T04:00:14;14.20;99.90
16267;DHT22;8241;48.786;9.250;2022-10-22T04:02:41;14.00;99.90
16267;DHT22;8241;48.786;9.250;2022-10-22T04:05:08;14.00;99.90
16267;DHT22;8241;48.786;9.250;2022-10-22T04:07:41;14.10;99.90
16267;DHT22;8241;48.786;9.250;2022-10-22T04:10:07;14.20;99.90
16267;DHT22;8241;48.786;9.250;2022-10-22T04:12:34;14.20;99.90
16267;DHT22;8241;48.786;9.250;2022-10-22T04:15:01;14.10;99.90
16267;DHT22;8241;48.786;9.250;2022-10-22T04:17:33;14.10;99.90
16267;DHT22;8241;48.786;9.250;2022-10-22T04:20:00;14.10;99.90
16267;DHT22;8241;48.786;9.250;2022-10-22T04:22:26;14.10;99.90
16267;DHT22;8241;48.786;9.250;2022-10-22T04:24:54;14.00;99.90
16267;DHT22;8241;48.786;9.250;2022-10-22T04:27:20;14.00;99.90
16267;DHT22;8241;48.786;9.250;2022-10-22T04:29:47;14.00;99.90
16267;DHT22;8241;48.786;9.250;2022-10-22T04:35:44;14.10;99.90
16267;DHT22;8241;48.786;9.250;2022-10-22T04:41:21;14.10;99.90
16267;DHT22;8241;48.786;9.250;2022-10-22T04:43:49;14.10;99.90
16267;DHT22;8241;48.786;9.250;2022-10-22T04:46:23;14.10;99.90
16267;DHT22;8241;48.786;9.250;2022-10-22T04:48:50;14.10;99.90
16267;DHT22;8241;48.786;9.250;2022-10-22T04:51:31;14.00;99.90
16267;DHT22;8241;48.786;9.250;2022-10-22T04:54:05;14.00;99.90
16267;DHT22;8241;48.786;9.250;2022-10-22T04:59:21;14.00;99.90
16267;DHT22;8241;48.786;9.250;2022-10-22T05:02:04;14.00;99.90
16267;DHT22;8241;48.786;9.250;2022-10-22T05:12:51;14.00;99.90
16267;DHT22;8241;48.786;9.250;2022-10-22T05:15:18;14.00;99.90
16267;DHT22;8241;48.786;9.250;2022-10-22T05:17:46;14.00;99.90
16267;DHT22;8241;48.786;9.250;2022-10-22T05:23:18;13.90;99.90
16267;DHT22;8241;48.786;9.250;2022-10-22T05:25:54;14.10;99.90
16267;DHT22;8241;48.786;9.250;2022-10-22T05:28:32;14.20;99.90
16267;DHT22;8241;48.786;9.250;2022-10-22T05:30:59;14.20;99.90
16267;DHT22;8241;48.786;9.250;2022-10-22T05:36:36;14.10;99.90
16267;DHT22;8241;48.786;9.250;2022-10-22T05:41:43;13.90;99.90
16267;DHT22;8241;48.786;9.250;2022-10-22T05:44:11;13.90;99.90
16267;DHT22;8241;48.786;9.250;2022-10-22T05:46:39;13.90;99.90
16267;DHT22;8241;48.786;9.250;2022-10-22T05:49:14;13.90;99.90
16267;DHT22;8241;48.786;9.250;2022-10-22T05:51:41;13.90;99.90
16267;DHT22;8241;48.786;9.250;2022-10-22T05:56:37;14.00;99.90
16267;DHT22;8241;48.786;9.250;2022-10-22T05:59:05;14.00;99.90
16267;DHT22;8241;48.786;9.250;2022-10-22T06:01:33;14.00;99.90
16267;DHT22;8241;48.786;9.250;2022-10-22T06:04:01;14.10;99.90
16267;DHT22;8241;48.786;9.250;2022-10-22T06:06:30;14.20;99.90
16267;DHT22;8241;48.786;9.250;2022-10-22T06:09:11;14.20;99.90
16267;DHT22;8241;48.786;9.250;2022-10-22T06:11:46;14.20;99.90
16267;DHT22;8241;48.786;9.250;2022-10-22T06:14:20;14.20;99.90
16267;DHT22;8241;48.786;9.250;2022-10-22T06:19:39;14.20;99.90
16267;DHT22;8241;48.786;9.250;2022-10-22T06:22:06;14.20;99.90
16267;DHT22;8241;48.786;9.250;2022-10-22T06:24:33;14.20;99.90
16267;DHT22;8241;48.786;9.250;2022-10-22T06:27:00;14.20;99.90
16267;DHT22;8241;48.786;9.250;2022-10-22T06:32:00;14.30;99.90
16267;DHT22;8241;48.786;9.250;2022-10-22T06:34:27;14.30;99.90
16267;DHT22;8241;48.786;9.250;2022-10-22T06:37:12;14.30;99.90
16267;DHT22;8241;48.786;9.250;2022-10-22T06:42:09;14.40;99.90
16267;DHT22;8241;48.786;9.250;2022-10-22T06:47:29;14.50;99.90
16267;DHT22;8241;48.786;9.250;2022-10-22T06:49:57;14.50;99.90
16267;DHT22;8241;48.786;9.250;2022-10-22T06:52:35;14.50;99.90
16267;DHT22;8241;48.786;9.250;2022-10-22T06:55:03;14.40;99.90
16267;DHT22;8241;48.786;9.250;2022-10-22T06:57:30;14.40;99.90
16267;DHT22;8241;48.786;9.250;2022-10-22T07:00:06;14.30;99.90
16267;DHT22;8241;48.786;9.250;2022-10-22T07:02:39;14.30;99.90
16267;DHT22;8241;48.786;9.250;2022-10-22T07:05:06;14.30;99.90
16267;DHT22;8241;48.786;9.250;2022-10-22T07:07:33;14.30;99.90
16267;DHT22;8241;48.786;9.250;2022-10-22T07:10:15;14.30;99.90
16267;DHT22;8241;48.786;9.250;2022-10-22T07:15:27;14.40;99.90
16267;DHT22;8241;48.786;9.250;2022-10-22T07:20:25;14.50;99.90
16267;DHT22;8241;48.786;9.250;2022-10-22T07:22:51;14.50;99.90
16267;DHT22;8241;48.786;9.250;2022-10-22T07:28:54;14.50;99.90
16267;DHT22;8241;48.786;9.250;2022-10-22T07:31:28;14.50;99.90
16267;DHT22;8241;48.786;9.250;2022-10-22T07:33:56;14.60;99.90
16267;DHT22;8241;48.786;9.250;2022-10-22T07:36:38;14.70;99.90
16267;DHT22;8241;48.786;9.250;2022-10-22T07:39:05;14.60;99.90
16267;DHT22;8241;48.786;9.250;2022-10-22T07:44:11;14.70;99.90
16267;DHT22;8241;48.786;9.250;2022-10-22T07:46:39;14.70;99.90
16267;DHT22;8241;48.786;9.250;2022-10-22T07:49:08;14.70;99.90
16267;DHT22;8241;48.786;9.250;2022-10-22T07:51:35;14.80;99.90
16267;DHT22;8241;48.786;9.250;2022-10-22T07:54:02;14.80;99.90
16267;DHT22;8241;48.786;9.250;2022-10-22T07:59:00;14.90;99.90
16267;DHT22;8241;48.786;9.250;2022-10-22T08:03:59;14.90;99.90
16267;DHT22;8241;48.786;9.250;2022-10-22T08:06:34;15.00;99.90
16267;DHT22;8241;48.786;9.250;2022-10-22T08:09:02;15.10;99.90
16267;DHT22;8241;48.786;9.250;2022-10-22T08:14:30;15.10;99.90
16267;DHT22;8241;48.786;9.250;2022-10-22T08:16:56;15.10;99.90
16267;DHT22;8241;48.786;9.250;2022-10-22T08:19:24;15.00;99.90
16267;DHT22;8241;48.786;9.250;2022-10-22T08:21:53;15.20;99.90
16267;DHT22;8241;48.786;9.250;2022-10-22T08:24:19;15.30;99.90
16267;DHT22;8241;48.786;9.250;2022-10-22T08:26:46;15.30;99.90
16267;DHT22;8241;48.786;9.250;2022-10-22T08:29:14;15.30;99.90
16267;DHT22;8241;48.786;9.250;2022-10-22T08:31:40;15.60;99.90
16267;DHT22;8241;48.786;9.250;2022-10-22T08:34:07;15.60;99.90
16267;DHT22;8241;48.786;9.250;2022-10-22T08:36:35;15.70;99.90
16267;DHT22;8241;48.786;9.250;2022-10-22T08:39:02;15.80;99.90
16267;DHT22;8241;48.786;9.250;2022-10-22T08:41:29;15.70;99.90
16267;DHT22;8241;48.786;9.250;2022-10-22T08:44:06;15.70;99.90
16267;DHT22;8241;48.786;9.250;2022-10-22T08:46:47;15.70;99.90
16267;DHT22;8241;48.786;9.250;2022-10-22T08:49:18;15.80;99.90
16267;DHT22;8241;48.786;9.250;2022-10-22T08:51:47;15.90;99.90
16267;DHT22;8241;48.786;9.250;2022-10-22T08:54:26;16.00;99.90
16267;DHT22;8241;48.786;9.250;2022-10-22T08:56:59;16.00;99.90
16267;DHT22;8241;48.786;9.250;2022-10-22T08:59:46;16.00;99.90
16267;DHT22;8241;48.786;9.250;2022-10-22T09:02:17;16.00;99.90
16267;DHT22;8241;48.786;9.250;2022-10-22T09:04:46;16.00;99.90
16267;DHT22;8241;48.786;9.250;2022-10-22T09:07:24;16.10;99.90
16267;DHT22;8241;48.786;9.250;2022-10-22T09:09:51;16.10;99.90
16267;DHT22;8241;48.786;9.250;2022-10-22T09:12:19;16.10;99.90
16267;DHT22;8241;48.786;9.250;2022-10-22T09:14:47;16.20;99.90
16267;DHT22;8241;48.786;9.250;2022-10-22T09:17:25;16.40;99.90
16267;DHT22;8241;48.786;9.250;2022-10-22T09:20:00;16.40;99.90
16267;DHT22;8241;48.786;9.250;2022-10-22T09:25:19;16.70;99.90
16267;DHT22;8241;48.786;9.250;2022-10-22T09:33:49;24.30;96.30
16267;DHT22;8241;48.786;9.250;2022-10-22T09:36:17;25.80;94.40
16267;DHT22;8241;48.786;9.250;2022-10-22T09:38:45;26.90;92.20
16267;DHT22;8241;48.786;9.250;2022-10-22T09:41:24;27.60;91.60
16267;DHT22;8241;48.786;9.250;2022-10-22T09:43:51;28.40;90.10
16267;DHT22;8241;48.786;9.250;2022-10-22T09:46:18;28.80;88.20
16267;DHT22;8241;48.786;9.250;2022-10-22T09:51:14;28.80;85.10
16267;DHT22;8241;48.786;9.250;2022-10-22T09:53:42;27.90;87.90
16267;DHT22;8241;48.786;9.250;2022-10-22T09:56:16;27.30;90.10
16267;DHT22;8241;48.786;9.250;2022-10-22T09:58:45;27.80;88.80
16267;DHT22;8241;48.786;9.250;2022-10-22T10:01:16;27.80;88.10
16267;DHT22;8241;48.786;9.250;2022-10-22T10:03:43;28.00;87.80
16267;DHT22;8241;48.786;9.250;2022-10-22T10:06:10;28.00;87.80
16267;DHT22;8241;48.786;9.250;2022-10-22T10:08:37;27.40;90.00
16267;DHT22;8241;48.786;9.250;2022-10-22T10:11:16;27.50;88.70
16267;DHT22;8241;48.786;9.250;2022-10-22T10:13:48;28.50;87.00
16267;DHT22;8241;48.786;9.250;2022-10-22T10:16:25;28.90;85.90
16267;DHT22;8241;48.786;9.250;2022-10-22T10:19:03;29.30;83.90
16267;DHT22;8241;48.786;9.250;2022-10-22T10:26:41;28.80;84.70
16267;DHT22;8241;48.786;9.250;2022-10-22T10:29:13;28.80;84.60
16267;DHT22;8241;48.786;9.250;2022-10-22T10:32:02;28.80;85.20
16267;DHT22;8241;48.786;9.250;2022-10-22T10:34:35;27.70;87.30
16267;DHT22;8241;48.786;9.250;2022-10-22T10:37:12;26.50;90.10
16267;DHT22;8241;48.786;9.250;2022-10-22T10:39:52;25.10;90.70
16267;DHT22;8241;48.786;9.250;2022-10-22T10:42:22;24.00;92.80
16267;DHT22;8241;48.786;9.250;2022-10-22T10:44:56;23.20;93.50
16267;DHT22;8241;48.786;9.250;2022-10-22T10:47:41;22.30;94.60
16267;DHT22;8241;48.786;9.250;2022-10-22T10:50:15;22.40;94.60
16267;DHT22;8241;48.786;9.250;2022-10-22T10:55:56;22.30;95.70
16267;DHT22;8241;48.786;9.250;2022-10-22T11:01:58;21.60;94.60
16267;DHT22;8241;48.786;9.250;2022-10-22T11:10:43;21.50;95.60
16267;DHT22;8241;48.786;9.250;2022-10-22T11:13:29;21.80;95.20
16267;DHT22;8241;48.786;9.250;2022-10-22T11:15:59;22.10;95.00
16267;DHT22;8241;48.786;9.250;2022-10-22T11:18:31;22.20;95.00
16267;DHT22;8241;48.786;9.250;2022-10-22T11:21:06;22.40;95.20
16267;DHT22;8241;48.786;9.250;2022-10-22T11:23:35;22.40;93.50
16267;DHT22;8241;48.786;9.250;2022-10-22T11:26:14;22.40;94.30
16267;DHT22;8241;48.786;9.250;2022-10-22T11:28:42;22.80;93.90
16267;DHT22;8241;48.786;9.250;2022-10-22T11:31:29;23.00;93.30
16267;DHT22;8241;48.786;9.250;2022-10-22T11:33:59;23.20;93.40
16267;DHT22;8241;48.786;9.250;2022-10-22T11:36:40;22.80;93.50
16267;DHT22;8241;48.786;9.250;2022-10-22T11:41:56;22.90;92.70
16267;DHT22;8241;48.786;9.250;2022-10-22T11:44:44;23.00;92.70
16267;DHT22;8241;48.786;9.250;2022-10-22T11:47:16;22.90;93.50
16267;DHT22;8241;48.786;9.250;2022-10-22T11:49:45;22.80;94.00
16267;DHT22;8241;48.786;9.250;2022-10-22T11:52:24;22.10;94.00
16267;DHT22;8241;48.786;9.250;2022-10-22T11:54:54;21.60;95.20
16267;DHT22;8241;48.786;9.250;2022-10-22T11:57:26;21.50;94.70
16267;DHT22;8241;48.786;9.250;2022-10-22T11:59:55;21.60;95.10
16267;DHT22;8241;48.786;9.250;2022-10-22T12:02:27;21.90;95.30
16267;DHT22;8241;48.786;9.250;2022-10-22T12:07:52;22.30;95.00
16267;DHT22;8241;48.786;9.250;2022-10-22T12:10:21;22.40;93.20
16267;DHT22;8241;48.786;9.250;2022-10-22T12:12:52;22.30;92.90
16267;DHT22;8241;48.786;9.250;2022-10-22T12:15:22;22.20;92.70
16267;DHT22;8241;48.786;9.250;2022-10-22T12:17:49;21.70;93.30
16267;DHT22;8241;48.786;9.250;2022-10-22T12:20:16;21.40;94.10
16267;DHT22;8241;48.786;9.250;2022-10-22T12:22:43;21.20;94.60
16267;DHT22;8241;48.786;9.250;2022-10-22T12:25:25;21.00;93.70
16267;DHT22;8241;48.786;9.250;2022-10-22T12:30:40;21.10;95.20
16267;DHT22;8241;48.786;9.250;2022-10-22T12:33:19;21.30;94.80
16267;DHT22;8241;48.786;9.250;2022-10-22T12:35:48;21.30;94.50
16267;DHT22;8241;48.786;9.250;2022-10-22T12:38:20;21.00;94.60
16267;DHT22;8241;48.786;9.250;2022-10-22T12:40:55;21.00;94.80
16267;DHT22;8241;48.786;9.250;2022-10-22T12:43:29;21.00;95.80
16267;DHT22;8241;48.786;9.250;2022-10-22T12:45:57;20.90;96.00
16267;DHT22;8241;48.786;9.250;2022-10-22T12:51:31;20.60;95.70
16267;DHT22;8241;48.786;9.250;2022-10-22T12:54:01;20.50;95.80
16267;DHT22;8241;48.786;9.250;2022-10-22T12:56:31;20.50;95.60
16267;DHT22;8241;48.786;9.250;2022-10-22T13:01:35;20.70;95.50
16267;DHT22;8241;48.786;9.250;2022-10-22T13:06:33;20.80;95.10
16267;DHT22;8241;48.786;9.250;2022-10-22T13:09:11;21.00;94.00
16267;DHT22;8241;48.786;9.250;2022-10-22T13:14:37;21.50;93.40
16267;DHT22;8241;48.786;9.250;2022-10-22T13:19:41;22.00;93.10
16267;DHT22;8241;48.786;9.250;2022-10-22T13:22:24;22.00;92.80
16267;DHT22;8241;48.786;9.250;2022-10-22T13:24:51;21.90;92.80
16267;DHT22;8241;48.786;9.250;2022-10-22T13:27:17;21.50;94.50
16267;DHT22;8241;48.786;9.250;2022-10-22T13:29:46;21.30;93.80
16267;DHT22;8241;48.786;9.250;2022-10-22T13:32:26;21.10;94.00
16267;DHT22;8241;48.786;9.250;2022-10-22T13:34:55;20.90;94.40
16267;DHT22;8241;48.786;9.250;2022-10-22T13:37:37;20.90;94.70
16267;DHT22;8241;48.786;9.250;2022-10-22T13:40:09;20.90;94.20
16267;DHT22;8241;48.786;9.250;2022-10-22T13:45:28;21.00;94.00
16267;DHT22;8241;48.786;9.250;2022-10-22T13:47:55;21.10;93.50
16267;DHT22;8241;48.786;9.250;2022-10-22T13:50:21;21.00;93.60
16267;DHT22;8241;48.786;9.250;2022-10-22T13:52:49;21.00;93.80
16267;DHT22;8241;48.786;9.250;2022-10-22T13:55:17;21.00;93.70
16267;DHT22;8241;48.786;9.250;2022-10-22T13:57:44;21.10;93.10
16267;DHT22;8241;48.786;9.250;2022-10-22T14:00:18;21.20;92.70
16267;DHT22;8241;48.786;9.250;2022-10-22T14:02:47;21.40;92.30
16267;DHT22;8241;48.786;9.250;2022-10-22T14:05:14;21.30;93.00
16267;DHT22;8241;48.786;9.250;2022-10-22T14:07:41;21.20;93.90
16267;DHT22;8241;48.786;9.250;2022-10-22T14:10:12;21.40;93.10
16267;DHT22;8241;48.786;9.250;2022-10-22T14:12:39;21.50;92.60
16267;DHT22;8241;48.786;9.250;2022-10-22T14:20:31;21.20;92.70
16267;DHT22;8241;48.786;9.250;2022-10-22T14:23:12;21.20;92.80
16267;DHT22;8241;48.786;9.250;2022-10-22T14:28:34;21.20;92.70
16267;DHT22;8241;48.786;9.250;2022-10-22T14:31:08;21.30;92.70
16267;DHT22;8241;48.786;9.250;2022-10-22T14:33:35;21.20;92.40
16267;DHT22;8241;48.786;9.250;2022-10-22T14:36:03;21.00;92.20
16267;DHT22;8241;48.786;9.250;2022-10-22T14:38:29;20.80;92.10
16267;DHT22;8241;48.786;9.250;2022-10-22T14:40:56;20.70;92.40
16267;DHT22;8241;48.786;9.250;2022-10-22T14:43:25;20.60;92.80
16267;DHT22;8241;48.786;9.250;2022-10-22T14:45:52;20.40;93.30
16267;DHT22;8241;48.786;9.250;2022-10-22T14:48:19;20.30;93.70
16267;DHT22;8241;48.786;9.250;2022-10-22T14:50:46;20.20;94.10
16267;DHT22;8241;48.786;9.250;2022-10-22T14:53:14;20.30;94.20
16267;DHT22;8241;48.786;9.250;2022-10-22T14:55:41;20.50;94.00
16267;DHT22;8241;48.786;9.250;2022-10-22T14:58:08;20.60;93.60
16267;DHT22;8241;48.786;9.250;2022-10-22T15:00:39;20.50;94.60
16267;DHT22;8241;48.786;9.250;2022-10-22T15:03:06;20.40;93.90
16267;DHT22;8241;48.786;9.250;2022-10-22T15:05:40;20.30;94.60
16267;DHT22;8241;48.786;9.250;2022-10-22T15:08:08;20.40;94.70
16267;DHT22;8241;48.786;9.250;2022-10-22T15:10:36;20.50;93.80
16267;DHT22;8241;48.786;9.250;2022-10-22T15:13:03;20.60;93.60
16267;DHT22;8241;48.786;9.250;2022-10-22T15:15:40;20.60;93.90
16267;DHT22;8241;48.786;9.250;2022-10-22T15:18:08;20.50;93.80
16267;DHT22;8241;48.786;9.250;2022-10-22T15:20:35;20.50;93.90
16267;DHT22;8241;48.786;9.250;2022-10-22T15:23:01;20.40;94.40
16267;DHT22;8241;48.786;9.250;2022-10-22T15:25:28;20.30;94.40
16267;DHT22;8241;48.786;9.250;2022-10-22T15:27:56;20.30;94.50
16267;DHT22;8241;48.786;9.250;2022-10-22T15:30:32;20.30;94.70
16267;DHT22;8241;48.786;9.250;2022-10-22T15:32:59;20.20;95.00
16267;DHT22;8241;48.786;9.250;2022-10-22T15:35:28;20.20;95.10
16267;DHT22;8241;48.786;9.250;2022-10-22T15:37:54;20.10;95.30
16267;DHT22;8241;48.786;9.250;2022-10-22T15:40:21;20.00;95.00
16267;DHT22;8241;48.786;9.250;2022-10-22T15:45:42;19.90;95.70
16267;DHT22;8241;48.786;9.250;2022-10-22T15:48:08;19.80;96.20
16267;DHT22;8241;48.786;9.250;2022-10-22T15:50:37;19.70;96.30
16267;DHT22;8241;48.786;9.250;2022-10-22T15:55:47;19.40;96.70
16267;DHT22;8241;48.786;9.250;2022-10-22T15:58:16;19.30;97.60
16267;DHT22;8241;48.786;9.250;2022-10-22T16:00:44;19.20;98.10
16267;DHT22;8241;48.786;9.250;2022-10-22T16:03:11;19.10;98.10
16267;DHT22;8241;48.786;9.250;2022-10-22T16:05:37;19.00;98.70
16267;DHT22;8241;48.786;9.250;2022-10-22T16:08:13;18.90;99.30
16267;DHT22;8241;48.786;9.250;2022-10-22T16:10:43;18.80;99.90
16267;DHT22;8241;48.786;9.250;2022-10-22T16:15:54;18.60;99.90
16267;DHT22;8241;48.786;9.250;2022-10-22T16:18:28;18.50;99.90
16267;DHT22;8241;48.786;9.250;2022-10-22T16:21:00;18.40;99.90
16267;DHT22;8241;48.786;9.250;2022-10-22T16:23:40;18.40;99.90
16267;DHT22;8241;48.786;9.250;2022-10-22T16:32:12;18.30;99.90
16267;DHT22;8241;48.786;9.250;2022-10-22T16:34:42;18.20;99.90
16267;DHT22;8241;48.786;9.250;2022-10-22T16:37:15;18.20;99.90
16267;DHT22;8241;48.786;9.250;2022-10-22T16:39:45;18.20;99.90
16267;DHT22;8241;48.786;9.250;2022-10-22T16:42:25;18.10;99.90
16267;DHT22;8241;48.786;9.250;2022-10-22T16:44:51;18.00;99.90
16267;DHT22;8241;48.786;9.250;2022-10-22T16:47:32;17.90;99.90
16267;DHT22;8241;48.786;9.250;2022-10-22T16:49:58;17.80;99.90
16267;DHT22;8241;48.786;9.250;2022-10-22T16:52:38;17.70;99.90
16267;DHT22;8241;48.786;9.250;2022-10-22T16:55:05;17.70;99.90
16267;DHT22;8241;48.786;9.250;2022-10-22T16:57:37;17.60;99.90
16267;DHT22;8241;48.786;9.250;2022-10-22T17:00:05;17.70;99.90
16267;DHT22;8241;48.786;9.250;2022-10-22T17:02:40;17.60;99.90
16267;DHT22;8241;48.786;9.250;2022-10-22T17:05:18;17.50;99.90
16267;DHT22;8241;48.786;9.250;2022-10-22T17:10:46;17.30;99.90
16267;DHT22;8241;48.786;9.250;2022-10-22T17:16:01;17.10;99.90
16267;DHT22;8241;48.786;9.250;2022-10-22T17:18:29;17.00;99.90
16267;DHT22;8241;48.786;9.250;2022-10-22T17:20:56;16.90;99.90
16267;DHT22;8241;48.786;9.250;2022-10-22T17:23:23;16.90;99.90
16267;DHT22;8241;48.786;9.250;2022-10-22T17:26:02;16.80;99.90
16267;DHT22;8241;48.786;9.250;2022-10-22T17:28:34;16.80;99.90
16267;DHT22;8241;48.786;9.250;2022-10-22T17:31:02;16.60;99.90
16267;DHT22;8241;48.786;9.250;2022-10-22T17:33:31;16.60;99.90
16267;DHT22;8241;48.786;9.250;2022-10-22T17:36:04;16.50;99.90
16267;DHT22;8241;48.786;9.250;2022-10-22T17:38:35;16.40;99.90
16267;DHT22;8241;48.786;9.250;2022-10-22T17:41:04;16.40;99.90
16267;DHT22;8241;48.786;9.250;2022-10-22T17:43:43;16.30;99.90
16267;DHT22;8241;48.786;9.250;2022-10-22T17:46:13;16.30;99.90
16267;DHT22;8241;48.786;9.250;2022-10-22T17:48:41;16.20;99.90
16267;DHT22;8241;48.786;9.250;2022-10-22T17:51:08;16.20;99.90
16267;DHT22;8241;48.786;9.250;2022-10-22T17:53:38;16.20;99.90
16267;DHT22;8241;48.786;9.250;2022-10-22T17:56:05;16.10;99.90
16267;DHT22;8241;48.786;9.250;2022-10-22T18:01:23;16.00;99.90
16267;DHT22;8241;48.786;9.250;2022-10-22T18:03:53;16.00;99.90
16267;DHT22;8241;48.786;9.250;2022-10-22T18:06:31;15.90;99.90
16267;DHT22;8241;48.786;9.250;2022-10-22T18:08:58;15.90;99.90
16267;DHT22;8241;48.786;9.250;2022-10-22T18:11:28;15.90;99.90
16267;DHT22;8241;48.786;9.250;2022-10-22T18:13:56;15.90;99.90
16267;DHT22;8241;48.786;9.250;2022-10-22T18:16:25;15.90;99.90
16267;DHT22;8241;48.786;9.250;2022-10-22T18:18:56;15.80;99.90
16267;DHT22;8241;48.786;9.250;2022-10-22T18:21:25;15.80;99.90
16267;DHT22;8241;48.786;9.250;2022-10-22T18:23:56;15.80;99.90
16267;DHT22;8241;48.786;9.250;2022-10-22T18:26:36;15.80;99.90
16267;DHT22;8241;48.786;9.250;2022-10-22T18:29:14;15.80;99.90
16267;DHT22;8241;48.786;9.250;2022-10-22T18:31:50;15.70;99.90
16267;DHT22;8241;48.786;9.250;2022-10-22T18:34:24;15.70;99.90
16267;DHT22;8241;48.786;9.250;2022-10-22T18:37:00;15.60;99.90
16267;DHT22;8241;48.786;9.250;2022-10-22T18:41:57;15.50;99.90
16267;DHT22;8241;48.786;9.250;2022-10-22T18:47:01;15.50;99.90
16267;DHT22;8241;48.786;9.250;2022-10-22T18:52:36;15.40;99.90
16267;DHT22;8241;48.786;9.250;2022-10-22T18:55:04;15.30;99.90
16267;DHT22;8241;48.786;9.250;2022-10-22T18:57:38;15.30;99.90
16267;DHT22;8241;48.786;9.250;2022-10-22T19:00:06;15.30;99.90